createdAt,value
2023-04-16T00:00:23.251Z,87.25
2023-04-16T00:01:25.793Z,86.73
2023-04-16T00:02:28.271Z,86.87
2023-04-16T00:03:30.818Z,86.74
2023-04-16T00:04:33.607Z,86.88
2023-04-16T00:05:35.963Z,86.41
2023-04-16T00:06:38.482Z,86.53
2023-04-16T00:07:41.348Z,86.06
2023-04-16T00:08:43.831Z,86.20
2023-04-16T00:09:46.747Z,86.02
2023-04-16T00:10:49.124Z,86.10
2023-04-16T00:11:51.575Z,86.18
2023-04-16T00:12:54.166Z,85.72
2023-04-16T00:13:56.485Z,85.93
2023-04-16T00:14:59.324Z,85.80
2023-04-16T00:16:02.042Z,86.07
2023-04-16T00:17:04.371Z,85.95
2023-04-16T00:18:07.027Z,86.03
2023-04-16T00:19:09.787Z,85.82
2023-04-16T00:20:12.417Z,86.22
2023-04-16T00:21:14.661Z,85.68
2023-04-16T00:22:17.127Z,85.78
2023-04-16T00:23:21.752Z,85.56
2023-04-16T00:24:24.108Z,85.60
2023-04-16T00:25:26.630Z,85.74
2023-04-16T00:26:29.026Z,86.19
2023-04-16T00:27:31.706Z,86.33
2023-04-16T00:28:34.631Z,86.38
2023-04-16T00:29:36.806Z,86.25
2023-04-16T00:30:39.260Z,86.38
2023-04-16T00:31:41.845Z,86.65
2023-04-16T00:32:44.084Z,86.55
2023-04-16T00:33:46.802Z,86.43
2023-04-16T00:34:49.005Z,86.54
2023-04-16T00:35:51.298Z,86.85
2023-04-16T00:36:53.709Z,87.31
2023-04-16T00:37:56.039Z,87.91
2023-04-16T00:38:58.474Z,88.03
2023-04-16T00:40:01.338Z,88.07
2023-04-16T00:41:03.653Z,88.41
2023-04-16T00:42:06.051Z,88.55
2023-04-16T00:43:08.587Z,88.81
2023-04-16T00:44:11.036Z,88.17
2023-04-16T00:45:13.545Z,87.82
2023-04-16T00:46:16.930Z,87.52
2023-04-16T00:47:20.434Z,87.30
2023-04-16T00:48:23.426Z,86.84
2023-04-16T00:49:26.709Z,86.72
2023-04-16T00:50:29.787Z,86.93
2023-04-16T00:51:33.000Z,86.66
2023-04-16T00:52:35.936Z,86.62
2023-04-16T00:53:38.876Z,86.48
2023-04-16T00:54:41.480Z,86.59
2023-04-16T00:55:44.616Z,86.57
2023-04-16T00:56:47.040Z,86.50
2023-04-16T00:57:50.738Z,86.30
2023-04-16T00:58:55.061Z,86.71
2023-04-16T00:59:58.339Z,86.82
2023-04-16T01:01:01.255Z,86.70
2023-04-16T01:02:03.577Z,86.71
2023-04-16T01:03:06.351Z,86.62
2023-04-16T01:04:09.306Z,86.48
2023-04-16T01:05:11.644Z,86.28
2023-04-16T01:06:14.747Z,86.26
2023-04-16T01:07:17.223Z,86.25
2023-04-16T01:08:21.535Z,86.49
2023-04-16T01:09:24.222Z,86.77
2023-04-16T01:10:26.569Z,86.77
2023-04-16T01:11:29.054Z,87.18
2023-04-16T01:12:32.567Z,87.08
2023-04-16T01:13:39.364Z,86.94
2023-04-16T01:14:42.020Z,86.42
2023-04-16T01:15:44.485Z,86.47
2023-04-16T01:16:46.834Z,86.51
2023-04-16T01:17:49.331Z,86.53
2023-04-16T01:18:51.965Z,86.33
2023-04-16T01:19:59.537Z,86.29
2023-04-16T01:21:01.905Z,86.57
2023-04-16T01:22:05.279Z,86.58
2023-04-16T01:23:07.615Z,86.78
2023-04-16T01:24:10.093Z,86.45
2023-04-16T01:25:16.181Z,86.68
2023-04-16T01:26:18.657Z,87.16
2023-04-16T01:27:20.920Z,86.78
2023-04-16T01:28:23.662Z,86.99
2023-04-16T01:29:26.781Z,87.18
2023-04-16T01:30:31.794Z,87.19
2023-04-16T01:32:00.326Z,86.91
2023-04-16T01:33:12.833Z,86.76
2023-04-16T01:34:16.205Z,86.55
2023-04-16T01:35:20.014Z,86.31
2023-04-16T01:36:22.488Z,86.33
2023-04-16T01:37:25.552Z,85.87
2023-04-16T01:38:27.839Z,86.40
2023-04-16T01:39:30.481Z,86.31
2023-04-16T01:40:34.142Z,86.26
2023-04-16T01:41:36.492Z,86.40
2023-04-16T01:42:39.009Z,86.15
2023-04-16T01:43:42.600Z,85.90
2023-04-16T01:44:47.108Z,86.19
2023-04-16T01:45:49.365Z,86.44
2023-04-16T01:46:51.590Z,86.46
2023-04-16T01:47:53.917Z,86.44
2023-04-16T01:48:56.862Z,86.07
2023-04-16T01:50:00.556Z,85.79
2023-04-16T01:51:04.905Z,85.57
2023-04-16T01:52:08.474Z,85.54
2023-04-16T01:53:10.856Z,85.35
2023-04-16T01:54:13.287Z,85.36
2023-04-16T01:55:15.859Z,85.12
2023-04-16T01:56:18.606Z,84.74
2023-04-16T01:57:20.964Z,84.48
2023-04-16T01:58:23.239Z,84.40
2023-04-16T01:59:25.607Z,84.52
2023-04-16T02:00:28.271Z,84.33
2023-04-16T02:01:30.885Z,84.63
2023-04-16T02:02:33.270Z,84.41
2023-04-16T02:03:35.915Z,84.47
2023-04-16T02:04:45.089Z,84.86
2023-04-16T02:05:47.686Z,84.91
2023-04-16T02:06:49.960Z,85.13
2023-04-16T02:07:52.181Z,84.94
2023-04-16T02:08:54.609Z,85.17
2023-04-16T02:09:58.046Z,85.03
2023-04-16T02:11:01.185Z,85.09
2023-04-16T02:12:04.192Z,85.18
2023-04-16T02:13:06.446Z,85.42
2023-04-16T02:14:09.121Z,85.63
2023-04-16T02:15:12.103Z,85.82
2023-04-16T02:16:14.588Z,86.12
2023-04-16T02:17:24.931Z,86.02
2023-04-16T02:18:38.825Z,86.19
2023-04-16T02:19:41.818Z,86.06
2023-04-16T02:20:47.528Z,86.13
2023-04-16T02:21:52.589Z,85.97
2023-04-16T02:22:54.822Z,85.43
2023-04-16T02:23:59.253Z,85.48
2023-04-16T02:25:04.422Z,85.20
2023-04-16T02:26:07.096Z,85.00
2023-04-16T02:27:09.521Z,85.10
2023-04-16T02:28:14.658Z,85.18
2023-04-16T02:29:17.942Z,85.38
2023-04-16T02:30:27.820Z,85.43
2023-04-16T02:31:31.778Z,85.37
2023-04-16T02:32:34.156Z,85.23
2023-04-16T02:33:36.722Z,85.52
2023-04-16T02:34:40.328Z,85.72
2023-04-16T02:35:43.248Z,85.62
2023-04-16T02:36:45.518Z,85.58
2023-04-16T02:37:47.761Z,85.64
2023-04-16T02:38:50.182Z,85.70
2023-04-16T02:39:53.308Z,85.63
2023-04-16T02:40:55.994Z,85.39
2023-04-16T02:41:59.441Z,85.36
2023-04-16T02:43:02.308Z,85.63
2023-04-16T02:44:04.736Z,86.07
2023-04-16T02:45:07.616Z,86.13
2023-04-16T02:46:10.103Z,86.55
2023-04-16T02:47:12.339Z,86.56
2023-04-16T02:48:14.548Z,86.84
2023-04-16T02:49:16.752Z,87.00
2023-04-16T02:50:18.964Z,87.46
2023-04-16T02:51:21.459Z,87.76
2023-04-16T02:52:23.740Z,88.05
2023-04-16T02:53:25.985Z,88.12
2023-04-16T02:54:28.258Z,88.29
2023-04-16T02:55:30.479Z,88.37
2023-04-16T02:56:33.055Z,88.66
2023-04-16T02:57:35.484Z,88.68
2023-04-16T02:58:37.972Z,88.76
2023-04-16T02:59:40.632Z,88.99
2023-04-16T03:00:43.329Z,89.59
2023-04-16T03:01:45.624Z,89.81
2023-04-16T03:02:48.101Z,89.89
2023-04-16T03:03:50.570Z,89.70
2023-04-16T03:04:53.882Z,89.66
2023-04-16T03:05:56.075Z,89.60
2023-04-16T03:06:58.310Z,89.54
2023-04-16T03:08:00.525Z,89.40
2023-04-16T03:09:02.758Z,89.48
2023-04-16T03:10:06.589Z,89.46
2023-04-16T03:11:08.952Z,88.89
2023-04-16T03:12:11.632Z,88.45
2023-04-16T03:13:14.365Z,88.09
2023-04-16T03:14:16.580Z,87.94
2023-04-16T03:15:18.927Z,88.01
2023-04-16T03:16:21.523Z,88.17
2023-04-16T03:17:24.189Z,88.18
2023-04-16T03:18:26.436Z,88.33
2023-04-16T03:19:28.606Z,88.48
2023-04-16T03:20:30.996Z,88.55
2023-04-16T03:21:33.302Z,88.97
2023-04-16T03:22:35.607Z,88.81
2023-04-16T03:23:37.886Z,89.11
2023-04-16T03:24:40.802Z,89.34
2023-04-16T03:25:46.608Z,89.31
2023-04-16T03:26:48.903Z,89.56
2023-04-16T03:27:51.725Z,89.39
2023-04-16T03:28:54.540Z,89.30
2023-04-16T03:29:57.160Z,89.46
2023-04-16T03:30:59.992Z,89.58
2023-04-16T03:32:02.614Z,89.67
2023-04-16T03:33:05.032Z,89.63
2023-04-16T03:34:07.867Z,89.63
2023-04-16T03:35:10.816Z,89.57
2023-04-16T03:36:13.494Z,89.68
2023-04-16T03:37:16.751Z,89.59
2023-04-16T03:38:19.027Z,89.42
2023-04-16T03:39:21.765Z,89.50
2023-04-16T03:40:24.184Z,89.68
2023-04-16T03:41:27.983Z,89.74
2023-04-16T03:42:30.785Z,89.71
2023-04-16T03:43:33.872Z,89.68
2023-04-16T03:44:36.279Z,89.44
2023-04-16T03:45:47.157Z,88.39
2023-04-16T03:46:49.474Z,87.25
2023-04-16T03:47:53.007Z,86.66
2023-04-16T03:48:58.096Z,86.43
2023-04-16T03:50:00.510Z,86.78
2023-04-16T03:51:03.692Z,86.77
2023-04-16T03:52:06.136Z,87.29
2023-04-16T03:53:08.501Z,87.51
2023-04-16T03:54:10.856Z,87.82
2023-04-16T03:55:14.042Z,87.76
2023-04-16T03:56:16.873Z,87.96
2023-04-16T03:57:19.141Z,88.37
2023-04-16T03:58:21.739Z,88.61
2023-04-16T03:59:23.970Z,88.78
2023-04-16T04:00:26.568Z,88.80
2023-04-16T04:01:49.796Z,88.92
2023-04-16T04:02:53.435Z,89.22
2023-04-16T04:03:56.098Z,89.58
2023-04-16T04:04:58.423Z,89.62
2023-04-16T04:06:00.878Z,89.46
2023-04-16T04:07:05.646Z,89.21
2023-04-16T04:08:08.266Z,88.98
2023-04-16T04:09:11.924Z,89.07
2023-04-16T04:10:14.303Z,89.30
2023-04-16T04:11:17.442Z,89.12
2023-04-16T04:12:21.978Z,88.80
2023-04-16T04:13:24.444Z,88.97
2023-04-16T04:14:27.538Z,88.98
2023-04-16T04:15:30.259Z,89.04
2023-04-16T04:16:32.842Z,89.02
2023-04-16T04:17:35.481Z,89.12
2023-04-16T04:18:38.260Z,89.23
2023-04-16T04:19:47.089Z,89.31
2023-04-16T04:20:53.268Z,89.56
2023-04-16T04:21:59.119Z,90.00
2023-04-16T04:23:01.638Z,90.04
2023-04-16T04:24:03.968Z,89.88
2023-04-16T04:25:10.245Z,89.81
2023-04-16T04:26:12.524Z,89.83
2023-04-16T04:27:16.071Z,89.38
2023-04-16T04:28:18.538Z,89.53
2023-04-16T04:29:21.453Z,89.66
2023-04-16T04:30:23.858Z,89.37
2023-04-16T04:31:26.085Z,88.95
2023-04-16T04:32:28.294Z,88.73
2023-04-16T04:33:32.228Z,88.76
2023-04-16T04:34:35.634Z,88.72
2023-04-16T04:35:38.247Z,88.76
2023-04-16T04:36:40.787Z,88.77
2023-04-16T04:37:43.082Z,88.54
2023-04-16T04:38:56.804Z,88.52
2023-04-16T04:39:59.119Z,88.47
2023-04-16T04:41:01.445Z,88.33
2023-04-16T04:42:08.721Z,88.36
2023-04-16T04:43:10.919Z,88.43
2023-04-16T04:44:14.229Z,88.34
2023-04-16T04:45:19.383Z,88.29
2023-04-16T04:46:21.865Z,88.27
2023-04-16T04:47:25.551Z,88.17
2023-04-16T04:48:28.848Z,88.24
2023-04-16T04:49:32.172Z,88.15
2023-04-16T04:50:34.486Z,88.58
2023-04-16T04:51:38.316Z,88.48
2023-04-16T04:52:40.814Z,88.19
2023-04-16T04:53:43.747Z,88.05
2023-04-16T04:54:46.421Z,87.86
2023-04-16T04:55:52.336Z,87.64
2023-04-16T04:56:56.628Z,87.57
2023-04-16T04:57:58.846Z,87.46
2023-04-16T04:59:01.853Z,87.24
2023-04-16T05:00:04.467Z,87.14
2023-04-16T05:01:14.846Z,87.15
2023-04-16T05:02:17.201Z,87.06
2023-04-16T05:03:24.077Z,87.07
2023-04-16T05:04:26.412Z,86.82
2023-04-16T05:05:28.820Z,86.88
2023-04-16T05:06:31.463Z,86.71
2023-04-16T05:07:33.790Z,86.61
2023-04-16T05:08:36.358Z,86.61
2023-04-16T05:09:38.782Z,86.83
2023-04-16T05:10:41.289Z,86.61
2023-04-16T05:11:43.537Z,86.72
2023-04-16T05:12:48.906Z,86.71
2023-04-16T05:13:54.369Z,86.35
2023-04-16T05:14:56.802Z,86.36
2023-04-16T05:15:59.712Z,86.66
2023-04-16T05:17:02.098Z,86.39
2023-04-16T05:18:04.632Z,86.15
2023-04-16T05:19:06.997Z,86.25
2023-04-16T05:20:09.841Z,86.12
2023-04-16T05:21:12.160Z,85.97
2023-04-16T05:22:14.472Z,85.92
2023-04-16T05:23:16.748Z,86.19
2023-04-16T05:24:19.940Z,86.48
2023-04-16T05:25:22.782Z,86.43
2023-04-16T05:26:30.508Z,86.50
2023-04-16T05:27:36.448Z,86.93
2023-04-16T05:28:38.678Z,87.13
2023-04-16T05:29:41.048Z,87.22
2023-04-16T05:30:43.561Z,87.31
2023-04-16T05:31:45.997Z,86.99
2023-04-16T05:32:48.435Z,86.87
2023-04-16T05:33:50.665Z,86.61
2023-04-16T05:34:53.133Z,86.73
2023-04-16T05:35:55.398Z,86.97
2023-04-16T05:36:57.588Z,86.78
2023-04-16T05:37:59.782Z,86.78
2023-04-16T05:39:02.188Z,86.91
2023-04-16T05:40:04.647Z,87.13
2023-04-16T05:41:09.426Z,87.16
2023-04-16T05:42:11.666Z,86.81
2023-04-16T05:43:16.162Z,87.06
2023-04-16T05:44:18.744Z,87.39
2023-04-16T05:45:21.262Z,87.46
2023-04-16T05:46:23.598Z,86.94
2023-04-16T05:47:25.945Z,86.80
2023-04-16T05:48:28.156Z,86.54
2023-04-16T05:49:30.366Z,86.16
2023-04-16T05:50:32.592Z,86.56
2023-04-16T05:51:34.841Z,86.47
2023-04-16T05:52:37.253Z,86.68
2023-04-16T05:53:41.836Z,87.12
2023-04-16T05:54:44.099Z,87.16
2023-04-16T05:55:47.104Z,87.64
2023-04-16T05:56:49.313Z,87.57
2023-04-16T05:57:51.521Z,87.71
2023-04-16T05:58:53.752Z,87.93
2023-04-16T05:59:55.938Z,87.94
2023-04-16T06:00:58.378Z,87.92
2023-04-16T06:02:00.765Z,87.72
2023-04-16T06:03:03.854Z,87.90
2023-04-16T06:04:06.570Z,88.08
2023-04-16T06:05:09.026Z,87.82
2023-04-16T06:06:11.809Z,87.54
2023-04-16T06:07:14.009Z,87.36
2023-04-16T06:08:16.269Z,87.38
2023-04-16T06:09:19.068Z,87.65
2023-04-16T06:10:21.415Z,87.77
2023-04-16T06:11:23.918Z,87.93
2023-04-16T06:12:29.459Z,88.24
2023-04-16T06:13:31.771Z,88.15
2023-04-16T06:14:34.273Z,88.08
2023-04-16T06:15:36.668Z,87.81
2023-04-16T06:16:38.853Z,88.09
2023-04-16T06:17:42.139Z,88.04
2023-04-16T06:18:44.733Z,87.78
2023-04-16T06:19:46.941Z,87.88
2023-04-16T06:20:49.407Z,87.64
2023-04-16T06:21:51.691Z,87.47
2023-04-16T06:22:53.979Z,87.87
2023-04-16T06:23:56.467Z,87.59
2023-04-16T06:24:58.761Z,87.58
2023-04-16T06:26:01.329Z,87.72
2023-04-16T06:27:03.598Z,87.28
2023-04-16T06:28:06.098Z,87.03
2023-04-16T06:29:08.596Z,86.57
2023-04-16T06:30:16.771Z,86.60
2023-04-16T06:31:19.186Z,86.41
2023-04-16T06:32:21.672Z,86.43
2023-04-16T06:33:24.071Z,86.63
2023-04-16T06:34:28.034Z,86.34
2023-04-16T06:35:30.455Z,86.21
2023-04-16T06:36:32.938Z,86.09
2023-04-16T06:37:35.551Z,85.77
2023-04-16T06:38:37.879Z,85.46
2023-04-16T06:39:40.715Z,85.31
2023-04-16T06:40:43.163Z,85.28
2023-04-16T06:41:45.721Z,85.35
2023-04-16T06:42:47.945Z,85.92
2023-04-16T06:43:50.348Z,85.70
2023-04-16T06:44:52.518Z,85.42
2023-04-16T06:45:54.961Z,85.71
2023-04-16T06:46:57.359Z,85.45
2023-04-16T06:47:59.766Z,85.02
2023-04-16T06:49:02.264Z,84.91
2023-04-16T06:50:04.716Z,84.78
2023-04-16T06:51:07.193Z,84.43
2023-04-16T06:52:09.876Z,84.00
2023-04-16T06:53:12.191Z,83.38
2023-04-16T06:54:14.590Z,83.34
2023-04-16T06:55:17.016Z,83.44
2023-04-16T06:56:19.452Z,83.95
2023-04-16T06:57:21.861Z,84.03
2023-04-16T06:58:24.133Z,84.39
2023-04-16T06:59:29.680Z,84.36
2023-04-16T07:00:31.877Z,84.42
2023-04-16T07:01:34.508Z,84.57
2023-04-16T07:02:36.954Z,84.75
2023-04-16T07:03:39.783Z,84.31
2023-04-16T07:04:42.107Z,83.82
2023-04-16T07:05:44.344Z,83.90
2023-04-16T07:06:46.731Z,84.05
2023-04-16T07:07:48.955Z,84.10
2023-04-16T07:08:51.202Z,83.84
2023-04-16T07:09:53.425Z,84.01
2023-04-16T07:10:55.876Z,83.58
2023-04-16T07:11:58.429Z,82.62
2023-04-16T07:13:01.690Z,81.66
2023-04-16T07:14:04.094Z,81.20
2023-04-16T07:15:07.400Z,80.62
2023-04-16T07:16:09.802Z,80.86
2023-04-16T07:17:12.052Z,81.38
2023-04-16T07:18:14.337Z,81.73
2023-04-16T07:19:16.569Z,81.66
2023-04-16T07:20:18.797Z,81.40
2023-04-16T07:21:22.173Z,80.77
2023-04-16T07:22:24.584Z,79.83
2023-04-16T07:23:26.817Z,79.81
2023-04-16T07:24:29.162Z,79.68
2023-04-16T07:25:31.487Z,79.49
2023-04-16T07:26:33.682Z,79.46
2023-04-16T07:27:36.089Z,79.81
2023-04-16T07:28:38.378Z,80.25
2023-04-16T07:29:41.165Z,79.75
2023-04-16T07:30:46.180Z,79.55
2023-04-16T07:31:49.644Z,79.53
2023-04-16T07:32:52.211Z,79.15
2023-04-16T07:33:54.456Z,78.64
2023-04-16T07:34:56.765Z,78.46
2023-04-16T07:35:59.099Z,78.52
2023-04-16T07:37:01.771Z,78.67
2023-04-16T07:38:03.979Z,78.92
2023-04-16T07:39:10.961Z,78.96
2023-04-16T07:40:13.725Z,79.34
2023-04-16T07:41:16.016Z,79.65
2023-04-16T07:42:18.602Z,80.06
2023-04-16T07:43:20.838Z,80.29
2023-04-16T07:44:23.081Z,80.17
2023-04-16T07:45:25.304Z,79.44
2023-04-16T07:46:39.405Z,78.83
2023-04-16T07:47:48.415Z,79.19
2023-04-16T07:48:50.721Z,78.67
2023-04-16T07:49:53.816Z,79.02
2023-04-16T07:50:56.347Z,79.31
2023-04-16T07:51:58.618Z,79.14
2023-04-16T07:53:01.577Z,79.44
2023-04-16T07:54:03.842Z,79.56
2023-04-16T07:55:06.405Z,79.28
2023-04-16T07:56:08.985Z,79.24
2023-04-16T07:57:12.276Z,79.09
2023-04-16T07:58:14.574Z,78.83
2023-04-16T07:59:22.824Z,78.71
2023-04-16T08:00:26.482Z,77.96
2023-04-16T08:01:31.506Z,77.61
2023-04-16T08:02:33.977Z,77.74
2023-04-16T08:03:36.745Z,77.71
2023-04-16T08:04:39.502Z,77.33
2023-04-16T08:05:41.958Z,77.83
2023-04-16T08:06:44.339Z,78.07
2023-04-16T08:07:46.787Z,78.30
2023-04-16T08:08:49.550Z,78.48
2023-04-16T08:09:52.979Z,78.50
2023-04-16T08:10:56.026Z,78.16
2023-04-16T08:11:59.974Z,77.83
2023-04-16T08:13:02.162Z,76.12
2023-04-16T08:14:04.900Z,75.37
2023-04-16T08:15:07.770Z,75.33
2023-04-16T08:16:10.173Z,75.72
2023-04-16T08:17:13.225Z,75.89
2023-04-16T08:18:15.762Z,75.88
2023-04-16T08:19:18.159Z,76.68
2023-04-16T08:20:20.613Z,77.27
2023-04-16T08:21:22.890Z,77.13
2023-04-16T08:22:26.527Z,76.47
2023-04-16T08:23:29.741Z,76.16
2023-04-16T08:24:32.405Z,76.55
2023-04-16T08:25:35.457Z,76.45
2023-04-16T08:26:37.797Z,76.20
2023-04-16T08:27:40.229Z,75.88
2023-04-16T08:28:42.743Z,75.94
2023-04-16T08:29:44.952Z,76.11
2023-04-16T08:30:47.231Z,76.39
2023-04-16T08:31:49.786Z,76.06
2023-04-16T08:32:52.303Z,75.65
2023-04-16T08:33:54.944Z,75.33
2023-04-16T08:34:58.102Z,75.33
2023-04-16T08:36:00.549Z,75.23
2023-04-16T08:37:03.049Z,75.86
2023-04-16T08:38:05.511Z,75.98
2023-04-16T08:39:08.132Z,76.47
2023-04-16T08:40:11.182Z,75.65
2023-04-16T08:41:14.154Z,75.52
2023-04-16T08:42:24.022Z,74.85
2023-04-16T08:43:27.428Z,74.88
2023-04-16T08:44:34.961Z,74.57
2023-04-16T08:45:38.419Z,74.99
2023-04-16T08:46:41.617Z,75.29
2023-04-16T08:47:49.579Z,75.68
2023-04-16T08:48:56.040Z,75.76
2023-04-16T08:49:59.234Z,75.83
2023-04-16T08:51:02.318Z,76.07
2023-04-16T08:52:06.722Z,74.92
2023-04-16T08:53:15.973Z,74.82
2023-04-16T08:54:43.785Z,74.32
2023-04-16T08:55:50.888Z,75.17
2023-04-16T08:56:54.049Z,75.08
2023-04-16T08:58:01.358Z,74.68
2023-04-16T08:59:07.542Z,74.55
2023-04-16T09:00:12.137Z,75.10
2023-04-16T09:01:15.398Z,75.66
2023-04-16T09:02:17.972Z,76.04
2023-04-16T09:03:21.612Z,76.52
2023-04-16T09:04:28.758Z,76.53
2023-04-16T09:05:31.888Z,76.15
2023-04-16T09:06:35.164Z,75.09
2023-04-16T09:07:38.181Z,74.71
2023-04-16T09:08:41.083Z,75.15
2023-04-16T09:09:48.442Z,75.06
2023-04-16T09:10:53.597Z,75.35
2023-04-16T09:11:56.612Z,75.70
2023-04-16T09:12:59.444Z,75.58
2023-04-16T09:14:02.060Z,74.22
2023-04-16T09:15:05.917Z,74.34
2023-04-16T09:16:09.371Z,74.07
2023-04-16T09:17:14.147Z,74.52
2023-04-16T09:18:16.577Z,74.64
2023-04-16T09:19:18.988Z,75.04
2023-04-16T09:20:21.225Z,75.06
2023-04-16T09:21:24.154Z,75.23
2023-04-16T09:22:26.480Z,75.20
2023-04-16T09:23:29.690Z,75.63
2023-04-16T09:24:32.698Z,75.89
2023-04-16T09:25:35.301Z,76.41
2023-04-16T09:26:38.638Z,76.60
2023-04-16T09:27:41.069Z,76.26
2023-04-16T09:28:47.995Z,76.02
2023-04-16T09:29:50.593Z,75.99
2023-04-16T09:31:17.179Z,76.06
2023-04-16T09:32:26.332Z,74.42
2023-04-16T09:33:28.549Z,73.91
2023-04-16T09:34:35.386Z,74.26
2023-04-16T09:35:51.639Z,74.75
2023-04-16T09:36:53.929Z,75.18
2023-04-16T09:37:57.851Z,75.64
2023-04-16T09:39:00.361Z,75.30
2023-04-16T09:40:04.816Z,75.36
2023-04-16T09:41:08.317Z,75.20
2023-04-16T09:42:14.133Z,75.20
2023-04-16T09:43:18.778Z,74.64
2023-04-16T09:44:21.783Z,74.18
2023-04-16T09:45:24.703Z,74.20
2023-04-16T09:46:31.777Z,74.35
2023-04-16T09:47:45.249Z,74.72
2023-04-16T09:48:47.961Z,73.95
2023-04-16T09:49:50.397Z,73.35
2023-04-16T09:50:52.712Z,73.23
2023-04-16T09:51:56.163Z,73.36
2023-04-16T09:53:03.588Z,73.87
2023-04-16T09:54:06.695Z,74.31
2023-04-16T09:55:08.864Z,73.99
2023-04-16T09:56:12.225Z,74.45
2023-04-16T09:57:18.200Z,73.88
2023-04-16T09:58:20.781Z,73.78
2023-04-16T09:59:24.196Z,73.69
2023-04-16T10:00:28.717Z,73.81
2023-04-16T10:01:31.410Z,73.23
2023-04-16T10:02:39.160Z,73.65
2023-04-16T10:03:42.422Z,74.50
2023-04-16T10:04:52.056Z,75.68
2023-04-16T10:05:54.464Z,77.31
2023-04-16T10:07:05.042Z,77.84
2023-04-16T10:08:17.293Z,77.99
2023-04-16T10:09:19.654Z,78.14
2023-04-16T10:10:22.342Z,77.61
2023-04-16T10:11:24.909Z,78.17
2023-04-16T10:12:28.784Z,78.90
2023-04-16T10:13:32.056Z,79.18
2023-04-16T10:14:34.835Z,78.92
2023-04-16T10:15:37.288Z,79.40
2023-04-16T10:16:41.207Z,79.51
2023-04-16T10:17:43.659Z,79.56
2023-04-16T10:18:47.328Z,79.25
2023-04-16T10:19:51.198Z,80.18
2023-04-16T10:20:53.690Z,79.98
2023-04-16T10:21:56.160Z,79.17
2023-04-16T10:22:59.141Z,79.35
2023-04-16T10:24:01.718Z,79.03
2023-04-16T10:25:04.281Z,78.87
2023-04-16T10:26:06.803Z,78.64
2023-04-16T10:27:09.005Z,78.78
2023-04-16T10:28:13.151Z,78.79
2023-04-16T10:29:15.698Z,78.15
2023-04-16T10:30:19.466Z,78.51
2023-04-16T10:31:22.957Z,78.72
2023-04-16T10:32:28.634Z,79.02
2023-04-16T10:33:36.437Z,78.87
2023-04-16T10:34:39.145Z,79.08
2023-04-16T10:35:41.439Z,79.23
2023-04-16T10:36:47.807Z,79.13
2023-04-16T10:37:51.529Z,78.89
2023-04-16T10:38:58.469Z,78.50
2023-04-16T10:40:00.686Z,78.20
2023-04-16T10:41:04.844Z,78.16
2023-04-16T10:42:13.602Z,78.03
2023-04-16T10:43:19.764Z,78.46
2023-04-16T10:44:24.929Z,78.88
2023-04-16T10:45:40.003Z,78.70
2023-04-16T10:46:43.956Z,78.65
2023-04-16T10:47:46.285Z,78.28
2023-04-16T10:48:50.789Z,78.21
2023-04-16T10:49:54.776Z,79.25
2023-04-16T10:50:58.198Z,78.70
2023-04-16T10:52:07.537Z,78.44
2023-04-16T10:53:28.203Z,78.99
2023-04-16T10:54:31.414Z,79.04
2023-04-16T10:55:38.112Z,78.64
2023-04-16T10:56:40.750Z,78.94
2023-04-16T10:57:42.945Z,78.53
2023-04-16T10:58:45.340Z,78.64
2023-04-16T10:59:48.982Z,77.81
2023-04-16T11:00:52.005Z,78.17
2023-04-16T11:01:56.357Z,78.53
2023-04-16T11:02:58.895Z,78.30
2023-04-16T11:04:25.082Z,78.30
2023-04-16T11:05:46.900Z,77.86
2023-04-16T11:07:14.638Z,78.34
2023-04-16T11:08:16.836Z,78.76
2023-04-16T11:09:49.816Z,78.01
2023-04-16T11:10:52.402Z,77.60
2023-04-16T11:11:55.074Z,77.63
2023-04-16T11:12:57.604Z,77.01
2023-04-16T11:14:00.325Z,76.61
2023-04-16T11:15:06.400Z,76.56
2023-04-16T11:16:08.765Z,76.52
2023-04-16T11:17:11.122Z,76.89
2023-04-16T11:18:19.701Z,76.75
2023-04-16T11:19:22.094Z,77.22
2023-04-16T11:20:28.383Z,77.72
2023-04-16T11:21:32.626Z,77.86
2023-04-16T11:22:38.281Z,77.40
2023-04-16T11:23:52.036Z,77.38
2023-04-16T11:24:56.234Z,76.80
2023-04-16T11:25:59.258Z,76.74
2023-04-16T11:27:01.842Z,76.81
2023-04-16T11:28:04.099Z,76.62
2023-04-16T11:29:14.400Z,75.79
2023-04-16T11:30:17.563Z,75.70
2023-04-16T11:31:19.925Z,75.46
2023-04-16T11:32:22.786Z,73.78
2023-04-16T11:33:26.188Z,73.44
2023-04-16T11:34:28.547Z,73.70
2023-04-16T11:35:31.177Z,74.27
2023-04-16T11:36:46.343Z,73.91
2023-04-16T11:37:48.903Z,73.70
2023-04-16T11:38:51.673Z,73.34
2023-04-16T11:39:57.148Z,73.16
2023-04-16T11:40:59.324Z,73.38
2023-04-16T11:42:01.593Z,72.75
2023-04-16T11:43:15.753Z,73.73
2023-04-16T11:44:22.094Z,74.11
2023-04-16T11:45:24.339Z,74.08
2023-04-16T11:46:39.522Z,74.21
2023-04-16T11:47:55.442Z,74.46
2023-04-16T11:48:57.921Z,74.88
2023-04-16T11:50:21.469Z,74.93
2023-04-16T11:51:24.187Z,75.24
2023-04-16T11:52:27.733Z,75.42
2023-04-16T11:53:29.924Z,75.67
2023-04-16T11:54:35.164Z,75.86
2023-04-16T11:55:45.549Z,75.92
2023-04-16T11:56:49.772Z,75.43
2023-04-16T11:57:53.270Z,75.32
2023-04-16T11:59:12.225Z,74.46
2023-04-16T12:00:15.919Z,73.63
2023-04-16T12:01:21.421Z,73.22
2023-04-16T12:02:45.310Z,72.77
2023-04-16T12:03:49.785Z,72.90
2023-04-16T12:04:52.410Z,72.31
2023-04-16T12:06:07.808Z,71.44
2023-04-16T12:07:14.890Z,71.76
2023-04-16T12:08:30.944Z,71.52
2023-04-16T12:09:36.483Z,71.73
2023-04-16T12:10:55.624Z,69.98
2023-04-16T12:11:57.942Z,69.84
2023-04-16T12:13:30.304Z,71.14
2023-04-16T12:14:33.071Z,71.24
2023-04-16T12:15:56.003Z,72.02
2023-04-16T12:17:18.561Z,71.48
2023-04-16T12:18:23.081Z,71.16
2023-04-16T12:19:28.144Z,71.74
2023-04-16T12:20:40.382Z,72.52
2023-04-16T12:21:45.065Z,73.23
2023-04-16T12:22:49.586Z,73.19
2023-04-16T12:23:53.775Z,72.73
2023-04-16T12:24:59.860Z,72.94
2023-04-16T12:26:12.532Z,73.45
2023-04-16T12:27:16.437Z,73.25
2023-04-16T12:28:33.552Z,73.42
2023-04-16T12:29:37.109Z,73.18
2023-04-16T12:30:51.352Z,72.94
2023-04-16T12:31:54.246Z,73.20
2023-04-16T12:33:17.062Z,73.34
2023-04-16T12:34:21.866Z,74.07
2023-04-16T12:35:34.473Z,73.85
2023-04-16T12:36:37.547Z,73.77
2023-04-16T12:37:40.830Z,73.93
2023-04-16T12:38:43.025Z,72.82
2023-04-16T12:39:47.573Z,73.01
2023-04-16T12:40:50.274Z,73.13
2023-04-16T12:41:52.890Z,73.29
2023-04-16T12:42:55.490Z,72.14
2023-04-16T12:44:24.073Z,72.40
2023-04-16T12:45:29.206Z,72.41
2023-04-16T12:46:31.669Z,72.50
2023-04-16T12:47:34.138Z,72.94
2023-04-16T12:48:36.665Z,73.63
2023-04-16T12:49:41.123Z,74.20
2023-04-16T12:50:44.338Z,75.00
2023-04-16T12:51:46.930Z,75.41
2023-04-16T12:52:49.130Z,75.71
2023-04-16T12:53:51.292Z,76.03
2023-04-16T12:54:53.874Z,76.86
2023-04-16T12:55:56.107Z,77.26
2023-04-16T12:56:58.479Z,77.16
2023-04-16T12:58:01.022Z,76.49
2023-04-16T12:59:03.636Z,76.41
2023-04-16T13:00:06.851Z,75.25
2023-04-16T13:01:09.175Z,74.62
2023-04-16T13:02:11.458Z,74.72
2023-04-16T13:03:14.058Z,74.93
2023-04-16T13:04:19.109Z,75.32
2023-04-16T13:05:21.469Z,75.45
2023-04-16T13:06:23.861Z,75.59
2023-04-16T13:07:26.898Z,75.91
2023-04-16T13:08:29.797Z,76.31
2023-04-16T13:09:31.974Z,77.21
2023-04-16T13:10:35.449Z,76.87
2023-04-16T13:11:37.703Z,77.04
2023-04-16T13:12:39.912Z,76.91
2023-04-16T13:13:44.619Z,76.16
2023-04-16T13:14:46.989Z,75.82
2023-04-16T13:15:49.359Z,75.89
2023-04-16T13:16:51.805Z,76.14
2023-04-16T13:17:54.100Z,76.76
2023-04-16T13:18:56.332Z,75.70
2023-04-16T13:19:58.525Z,76.76
2023-04-16T13:21:00.812Z,77.90
2023-04-16T13:22:03.391Z,78.37
2023-04-16T13:23:05.751Z,77.82
2023-04-16T13:24:08.192Z,78.10
2023-04-16T13:25:10.427Z,78.44
2023-04-16T13:26:21.098Z,78.74
2023-04-16T13:27:23.394Z,78.98
2023-04-16T13:28:25.824Z,78.97
2023-04-16T13:29:28.330Z,78.95
2023-04-16T13:30:31.677Z,78.49
2023-04-16T13:31:33.954Z,77.79
2023-04-16T13:32:36.476Z,78.16
2023-04-16T13:33:38.975Z,78.18
2023-04-16T13:34:41.279Z,78.62
2023-04-16T13:35:46.347Z,78.61
2023-04-16T13:36:48.829Z,79.01
2023-04-16T13:37:51.208Z,79.26
2023-04-16T13:38:53.405Z,79.21
2023-04-16T13:39:57.681Z,80.05
2023-04-16T13:40:59.865Z,80.21
2023-04-16T13:42:02.676Z,80.01
2023-04-16T13:43:07.250Z,80.12
2023-04-16T13:44:09.927Z,80.27